KLEX/LEX METAR and TAF weather

Enter ICAO airport designator
Station Type Date Time Source
KLEX METAR 2021/09/16 10:54 UTC NOAA

KLEX 161054Z 04005KT 1/4SM R04/1600V2800FT FG VV002 18/18 A3007 RMK AO2 SLP177 T01780178


Station Type Date Time Source
KLEX Decoded METAR 2021/09/16 10:54 UTC NOAA

LEXINGTON BLUE GRASS AIRPORT, KY, United States (KLEX) 38-02N 084-36W 300M
Sep 16, 2021 - 06:54 AM EDT / 2021.09.16 1054 UTC
Wind: from the NE (040 degrees) at 6 MPH (5 KT) (direction variable):0
Visibility: 1/4 mile(s):0
Sky conditions: obscured
Weather: fog
Temperature: 64.0 F (17.8 C)
Dew Point: 64.0 F (17.8 C)
Relative Humidity: 100%
Pressure (altimeter): 30.07 in. Hg (1018 hPa)
ob: KLEX 161054Z 04005KT 1/4SM R04/1600V2800FT FG VV002 18/18 A3007 RMK AO2 SLP177 T01780178
cycle: 11

Station Type Date Time Source
KLEX TAF 2021/09/16 07:58 UTC NOAA

TAF
AMD KLEX 160657Z 1607/1706 00000KT 1SM BR OVC003
TEMPO 1607/1609 1/4SM FG OVC002
FM160900 00000KT 1/4SM FG OVC002
FM161400 07005KT 4SM BR SCT005 BKN015
FM161700 08005KT P6SM SCT080
FM170100 VRB03KT P6SM SKC

Example: see airport list